createdAt,value
2019-02-17T00:00:59.575Z,76.12
2019-02-17T00:03:28.068Z,76.12
2019-02-17T00:05:56.321Z,75.64
2019-02-17T00:08:24.576Z,76.04
2019-02-17T00:10:52.821Z,77.42
2019-02-17T00:13:21.093Z,77.82
2019-02-17T00:15:49.339Z,77.97
2019-02-17T00:18:17.593Z,77.15
2019-02-17T00:20:45.836Z,77.66
2019-02-17T00:23:14.396Z,76.79
2019-02-17T00:25:42.658Z,76.01
2019-02-17T00:28:11.262Z,75.87
2019-02-17T00:30:39.516Z,76.41
2019-02-17T00:33:08.022Z,75.91
2019-02-17T00:35:36.278Z,77.08
2019-02-17T00:38:04.929Z,76.30
2019-02-17T00:40:33.165Z,76.36
2019-02-17T00:43:01.666Z,76.33
2019-02-17T00:45:30.243Z,76.31
2019-02-17T00:47:58.741Z,76.32
2019-02-17T00:50:27.001Z,76.27
2019-02-17T00:52:55.566Z,76.47
2019-02-17T00:55:23.829Z,76.83
2019-02-17T00:57:52.103Z,76.43
2019-02-17T01:00:20.353Z,76.63
2019-02-17T01:02:48.604Z,76.75
2019-02-17T01:05:16.884Z,76.52
2019-02-17T01:07:45.150Z,76.52
2019-02-17T01:10:13.432Z,77.25
2019-02-17T01:12:41.706Z,77.25
2019-02-17T01:15:13.349Z,77.81
2019-02-17T01:17:41.632Z,77.29
2019-02-17T01:20:10.519Z,78.00
2019-02-17T01:22:38.752Z,77.99
2019-02-17T01:25:09.106Z,77.60
2019-02-17T01:27:37.341Z,77.16
2019-02-17T01:30:08.820Z,77.28
2019-02-17T01:32:37.313Z,77.24
2019-02-17T01:35:06.524Z,77.79
2019-02-17T01:37:34.993Z,78.53
2019-02-17T01:40:03.857Z,79.40
2019-02-17T01:42:32.090Z,77.34
2019-02-17T01:45:00.563Z,77.35
2019-02-17T01:47:28.795Z,77.10
2019-02-17T01:49:57.036Z,76.88
2019-02-17T01:52:25.267Z,76.79
2019-02-17T01:54:53.504Z,77.04
2019-02-17T01:57:21.961Z,77.20
2019-02-17T01:59:50.428Z,77.01
2019-02-17T02:02:18.889Z,77.47
2019-02-17T02:04:47.363Z,78.76
2019-02-17T02:07:15.586Z,77.45
2019-02-17T02:09:43.860Z,77.21
2019-02-17T02:12:12.060Z,77.11
2019-02-17T02:14:40.305Z,77.37
2019-02-17T02:17:08.536Z,77.18
2019-02-17T02:19:37.204Z,78.74
2019-02-17T02:22:05.436Z,77.89
2019-02-17T02:24:33.662Z,77.82
2019-02-17T02:27:01.909Z,78.31
2019-02-17T02:29:40.409Z,78.62
2019-02-17T02:32:00.101Z,78.39
2019-02-17T02:34:28.332Z,78.10
2019-02-17T02:36:56.877Z,78.06
2019-02-17T02:39:25.105Z,77.82
2019-02-17T02:41:53.577Z,77.65
2019-02-17T02:44:22.037Z,77.68
2019-02-17T02:46:50.508Z,77.50
2019-02-17T02:49:18.749Z,77.45
2019-02-17T02:51:46.980Z,78.14
2019-02-17T02:54:15.222Z,77.69
2019-02-17T02:56:43.454Z,78.12
2019-02-17T02:59:12.039Z,78.24
2019-02-17T03:01:40.271Z,78.44
2019-02-17T03:04:08.656Z,78.30
2019-02-17T03:06:40.971Z,77.77
2019-02-17T03:09:09.537Z,77.96
2019-02-17T03:11:38.004Z,77.62
2019-02-17T03:14:06.240Z,77.63
2019-02-17T03:16:34.483Z,77.95
2019-02-17T03:19:02.725Z,78.24
2019-02-17T03:21:31.191Z,77.84
2019-02-17T03:23:59.450Z,77.96
2019-02-17T03:26:27.656Z,78.79
2019-02-17T03:28:55.890Z,78.42
2019-02-17T03:31:24.370Z,79.14
2019-02-17T03:33:52.621Z,78.34
2019-02-17T03:36:20.845Z,78.51
2019-02-17T03:38:49.309Z,78.09
2019-02-17T03:41:17.552Z,78.09
2019-02-17T03:43:45.791Z,78.37
2019-02-17T03:46:14.028Z,78.27
2019-02-17T03:48:42.266Z,78.25
2019-02-17T03:51:10.506Z,78.24
2019-02-17T03:53:38.739Z,78.50
2019-02-17T03:56:06.974Z,78.52
2019-02-17T03:58:35.440Z,78.40
2019-02-17T04:01:03.675Z,78.29
2019-02-17T04:03:32.149Z,79.05
2019-02-17T04:06:00.383Z,78.74
2019-02-17T04:08:28.627Z,79.35
2019-02-17T04:10:56.856Z,79.38
2019-02-17T04:13:25.092Z,79.24
2019-02-17T04:15:53.324Z,80.35
2019-02-17T04:18:21.798Z,80.68
2019-02-17T04:20:50.029Z,80.18
2019-02-17T04:23:18.504Z,79.27
2019-02-17T04:25:46.967Z,79.61
2019-02-17T04:28:15.472Z,80.05
2019-02-17T04:30:43.678Z,80.31
2019-02-17T04:33:11.917Z,79.80
2019-02-17T04:35:40.146Z,79.49
2019-02-17T04:38:08.616Z,79.51
2019-02-17T04:40:37.072Z,79.48
2019-02-17T04:43:05.322Z,79.62
2019-02-17T04:45:33.772Z,79.59
2019-02-17T04:48:02.011Z,79.47
2019-02-17T04:50:30.250Z,79.50
2019-02-17T04:52:58.488Z,79.45
2019-02-17T04:55:26.954Z,79.53
2019-02-17T04:57:55.198Z,79.33
2019-02-17T05:00:23.667Z,79.37
2019-02-17T05:02:51.895Z,79.67
2019-02-17T05:05:20.133Z,79.75
2019-02-17T05:07:48.603Z,79.72
2019-02-17T05:10:16.840Z,79.44
2019-02-17T05:12:45.077Z,79.44
2019-02-17T05:15:13.543Z,79.47
2019-02-17T05:17:41.778Z,79.13
2019-02-17T05:20:10.269Z,79.15
2019-02-17T05:22:39.393Z,79.68
2019-02-17T05:25:07.887Z,79.40
2019-02-17T05:27:36.135Z,79.34
2019-02-17T05:30:06.980Z,79.19
2019-02-17T05:32:35.214Z,79.62
2019-02-17T05:35:03.854Z,79.86
2019-02-17T05:37:32.089Z,79.47
2019-02-17T05:40:00.334Z,79.72
2019-02-17T05:42:28.563Z,79.48
2019-02-17T05:44:56.808Z,79.70
2019-02-17T05:47:25.036Z,79.54
2019-02-17T05:49:53.277Z,80.01
2019-02-17T05:52:21.510Z,79.61
2019-02-17T05:54:50.565Z,79.40
2019-02-17T05:57:18.785Z,79.39
2019-02-17T05:59:47.255Z,79.00
2019-02-17T06:02:15.488Z,80.69
2019-02-17T06:04:43.738Z,79.91
2019-02-17T06:07:11.970Z,79.64
2019-02-17T06:09:40.430Z,79.97
2019-02-17T06:12:08.902Z,79.38
2019-02-17T06:14:37.367Z,79.48
2019-02-17T06:17:05.844Z,79.39
2019-02-17T06:19:34.066Z,79.51
2019-02-17T06:22:02.305Z,79.26
2019-02-17T06:24:30.541Z,79.30
2019-02-17T06:26:58.780Z,79.31
2019-02-17T06:29:27.249Z,79.32
2019-02-17T06:31:55.540Z,79.60
2019-02-17T06:34:23.733Z,79.78
2019-02-17T06:36:51.978Z,80.11
2019-02-17T06:39:20.240Z,79.63
2019-02-17T06:41:48.495Z,79.47
2019-02-17T06:44:16.717Z,80.10
2019-02-17T06:46:46.821Z,79.43
2019-02-17T06:49:15.056Z,79.24
2019-02-17T06:51:43.523Z,79.74
2019-02-17T06:54:11.753Z,80.27
2019-02-17T06:56:41.634Z,79.34
2019-02-17T06:59:09.865Z,79.51
2019-02-17T07:01:38.332Z,79.34
2019-02-17T07:04:06.589Z,79.12
2019-02-17T07:06:36.457Z,79.28
2019-02-17T07:09:05.846Z,78.98
2019-02-17T07:11:34.344Z,78.85
2019-02-17T07:14:02.549Z,78.93
2019-02-17T07:16:30.792Z,79.24
2019-02-17T07:18:59.348Z,78.71
2019-02-17T07:21:27.823Z,78.68
2019-02-17T07:23:56.277Z,79.80
2019-02-17T07:26:24.522Z,79.62
2019-02-17T07:28:52.749Z,80.77
2019-02-17T07:31:22.605Z,79.39
2019-02-17T07:33:50.904Z,79.37
2019-02-17T07:36:19.145Z,80.17
2019-02-17T07:38:47.382Z,80.25
2019-02-17T07:41:15.621Z,79.83
2019-02-17T07:43:43.852Z,79.04
2019-02-17T07:46:12.323Z,79.95
2019-02-17T07:48:40.786Z,79.77
2019-02-17T07:51:09.260Z,79.51
2019-02-17T07:53:37.560Z,79.04
2019-02-17T07:56:06.026Z,79.35
2019-02-17T07:58:34.497Z,79.82
2019-02-17T08:01:02.949Z,79.12
2019-02-17T08:03:31.412Z,79.47
2019-02-17T08:05:59.645Z,79.34
2019-02-17T08:08:28.117Z,79.29
2019-02-17T08:11:03.747Z,78.54
2019-02-17T08:13:26.540Z,79.89
2019-02-17T08:15:54.773Z,78.49
2019-02-17T08:18:23.014Z,79.08
2019-02-17T08:20:51.484Z,78.52
2019-02-17T08:23:19.949Z,78.04
2019-02-17T08:25:48.185Z,77.72
2019-02-17T08:28:16.425Z,77.72
2019-02-17T08:30:44.658Z,78.29
2019-02-17T08:33:12.904Z,79.67
2019-02-17T08:35:41.138Z,79.67
2019-02-17T08:38:09.384Z,78.41
2019-02-17T08:40:37.616Z,78.41
2019-02-17T08:43:06.080Z,78.88
2019-02-17T08:45:34.545Z,77.92
2019-02-17T08:48:02.783Z,77.71
2019-02-17T08:50:31.021Z,77.87
2019-02-17T08:52:59.266Z,77.87
2019-02-17T08:55:27.730Z,77.83
2019-02-17T08:57:56.199Z,77.64
2019-02-17T09:00:24.437Z,78.21
2019-02-17T09:02:52.684Z,78.21
2019-02-17T09:05:21.149Z,77.35
2019-02-17T09:07:49.402Z,77.08
2019-02-17T09:10:17.645Z,76.80
2019-02-17T09:12:45.886Z,76.80
2019-02-17T09:15:14.350Z,76.43
2019-02-17T09:17:42.816Z,76.01
2019-02-17T09:20:11.622Z,76.01
2019-02-17T09:22:39.876Z,76.03
2019-02-17T09:25:10.352Z,75.24
2019-02-17T09:27:38.833Z,74.41
2019-02-17T09:30:10.459Z,74.41
2019-02-17T09:32:38.702Z,74.75
2019-02-17T09:35:06.934Z,74.25
2019-02-17T09:37:35.180Z,74.15
2019-02-17T09:40:04.018Z,72.65
2019-02-17T09:42:32.490Z,72.65
2019-02-17T09:45:00.727Z,72.64
2019-02-17T09:47:28.964Z,72.60
2019-02-17T09:49:57.469Z,73.02
2019-02-17T09:52:25.948Z,72.16
2019-02-17T09:54:54.178Z,72.14
2019-02-17T09:57:22.424Z,72.10
2019-02-17T09:59:50.661Z,71.74
2019-02-17T10:02:26.247Z,70.97
2019-02-17T10:04:48.901Z,71.01
2019-02-17T10:07:17.460Z,71.13
2019-02-17T10:09:45.708Z,70.74
2019-02-17T10:12:14.214Z,69.85
2019-02-17T10:14:42.461Z,69.67
2019-02-17T10:17:10.979Z,69.59
2019-02-17T10:19:39.217Z,69.05
2019-02-17T10:22:07.453Z,68.62
2019-02-17T10:24:35.697Z,69.34
2019-02-17T10:27:04.160Z,69.26
2019-02-17T10:29:32.404Z,68.26
2019-02-17T10:32:00.637Z,68.14
2019-02-17T10:34:29.113Z,68.69
2019-02-17T10:36:57.351Z,67.57
2019-02-17T10:39:25.818Z,68.00
2019-02-17T10:41:54.366Z,67.51
2019-02-17T10:44:22.846Z,67.32
2019-02-17T10:46:51.082Z,66.57
2019-02-17T10:49:19.507Z,66.83
2019-02-17T10:51:47.758Z,66.15
2019-02-17T10:54:15.997Z,66.13
2019-02-17T10:56:44.466Z,65.17
2019-02-17T10:59:12.715Z,65.65
2019-02-17T11:01:41.193Z,65.30
2019-02-17T11:04:09.608Z,65.14
2019-02-17T11:06:38.069Z,64.60
2019-02-17T11:09:08.932Z,64.25
2019-02-17T11:11:37.176Z,63.70
2019-02-17T11:14:05.656Z,63.78
2019-02-17T11:16:33.893Z,63.50
2019-02-17T11:19:02.140Z,62.36
2019-02-17T11:21:30.694Z,62.27
2019-02-17T11:23:58.938Z,62.07
2019-02-17T11:26:27.179Z,61.81
2019-02-17T11:28:55.651Z,61.74
2019-02-17T11:31:24.218Z,61.61
2019-02-17T11:33:52.705Z,60.04
2019-02-17T11:36:20.932Z,59.91
2019-02-17T11:38:49.449Z,56.77
2019-02-17T11:41:17.691Z,56.78
2019-02-17T11:43:45.939Z,56.46
2019-02-17T11:46:14.181Z,56.95
2019-02-17T11:48:42.428Z,56.70
2019-02-17T11:51:10.667Z,56.37
2019-02-17T11:53:38.909Z,56.16
2019-02-17T11:56:07.391Z,55.91
2019-02-17T11:58:35.647Z,55.46
2019-02-17T12:01:05.359Z,55.22
2019-02-17T12:03:33.715Z,55.51
2019-02-17T12:06:02.238Z,55.75
2019-02-17T12:08:30.482Z,54.61
2019-02-17T12:10:59.101Z,55.58
2019-02-17T12:13:27.347Z,55.67
2019-02-17T12:15:55.583Z,55.80
2019-02-17T12:18:24.057Z,55.80
2019-02-17T12:20:56.808Z,55.45
2019-02-17T12:23:26.763Z,55.48
2019-02-17T12:26:14.186Z,55.00
2019-02-17T12:28:44.069Z,55.01
2019-02-17T12:31:13.948Z,54.33
2019-02-17T12:33:42.189Z,54.20
2019-02-17T12:36:10.684Z,53.99
2019-02-17T12:38:39.159Z,53.88
2019-02-17T12:41:07.631Z,53.48
2019-02-17T12:43:35.870Z,53.61
2019-02-17T12:46:04.341Z,52.95
2019-02-17T12:48:32.578Z,52.92
2019-02-17T12:51:00.837Z,52.61
2019-02-17T12:53:29.375Z,52.95
2019-02-17T12:55:57.845Z,52.80
2019-02-17T12:58:29.891Z,52.99
2019-02-17T13:00:56.286Z,52.50
2019-02-17T13:03:28.440Z,51.68
2019-02-17T13:05:54.496Z,51.48
2019-02-17T13:08:22.961Z,52.09
2019-02-17T13:10:51.444Z,51.97
2019-02-17T13:13:19.716Z,51.38
2019-02-17T13:15:47.963Z,50.97
2019-02-17T13:18:16.435Z,50.45
2019-02-17T13:20:44.908Z,50.82
2019-02-17T13:23:13.374Z,50.39
2019-02-17T13:25:41.621Z,50.48
2019-02-17T13:28:09.857Z,49.48
2019-02-17T13:30:38.107Z,50.29
2019-02-17T13:33:06.577Z,50.09
2019-02-17T13:35:34.824Z,49.43
2019-02-17T13:38:03.289Z,50.61
2019-02-17T13:40:31.586Z,50.92
2019-02-17T13:43:00.052Z,50.27
2019-02-17T13:45:28.335Z,49.32
2019-02-17T13:47:56.570Z,48.87
2019-02-17T13:50:25.036Z,47.90
2019-02-17T13:52:53.292Z,47.32
2019-02-17T13:55:21.531Z,47.10
2019-02-17T13:57:49.779Z,47.68
2019-02-17T14:00:19.356Z,46.61
2019-02-17T14:02:47.601Z,47.02
2019-02-17T14:05:16.067Z,46.95
2019-02-17T14:07:44.543Z,47.01
2019-02-17T14:10:13.922Z,46.82
2019-02-17T14:12:42.161Z,46.66
2019-02-17T14:15:16.070Z,46.18
2019-02-17T14:17:44.314Z,46.54
2019-02-17T14:20:12.782Z,46.29
2019-02-17T14:22:41.260Z,46.30
2019-02-17T14:25:11.141Z,46.57
2019-02-17T14:27:39.657Z,47.02
2019-02-17T14:30:17.675Z,46.05
2019-02-17T14:32:45.923Z,46.65
2019-02-17T14:35:14.165Z,46.07
2019-02-17T14:37:43.234Z,45.62
2019-02-17T14:40:12.942Z,44.32
2019-02-17T14:42:41.186Z,45.10
2019-02-17T14:45:15.095Z,45.20
2019-02-17T14:47:43.347Z,45.38
2019-02-17T14:50:11.905Z,44.19
2019-02-17T14:52:40.152Z,44.30
2019-02-17T14:55:10.045Z,44.55
2019-02-17T14:57:38.519Z,43.67
2019-02-17T15:00:14.247Z,43.95
2019-02-17T15:02:42.708Z,43.95
2019-02-17T15:05:11.084Z,44.04
2019-02-17T15:07:39.552Z,43.65
2019-02-17T15:10:12.618Z,44.63
2019-02-17T15:12:41.098Z,44.53
2019-02-17T15:15:13.777Z,44.72
2019-02-17T15:17:42.016Z,44.79
2019-02-17T15:20:14.669Z,44.72
2019-02-17T15:22:43.141Z,44.56
2019-02-17T15:25:12.290Z,43.73
2019-02-17T15:27:40.738Z,44.50
2019-02-17T15:30:13.670Z,43.75
2019-02-17T15:32:41.932Z,44.27
2019-02-17T15:35:10.152Z,43.33
2019-02-17T15:37:39.504Z,43.42
2019-02-17T15:40:10.920Z,43.00
2019-02-17T15:42:39.386Z,44.08
2019-02-17T15:45:10.298Z,43.67
2019-02-17T15:47:38.771Z,44.10
2019-02-17T15:50:09.583Z,42.79
2019-02-17T15:52:38.045Z,44.37
2019-02-17T15:55:09.220Z,44.11
2019-02-17T15:57:37.457Z,44.53
2019-02-17T16:00:16.140Z,43.25
2019-02-17T16:02:44.376Z,43.57
2019-02-17T16:05:21.865Z,43.76
2019-02-17T16:07:50.366Z,44.58
2019-02-17T16:10:18.681Z,44.90
2019-02-17T16:12:46.921Z,45.17
2019-02-17T16:15:17.681Z,44.88
2019-02-17T16:17:46.256Z,45.48
2019-02-17T16:20:14.954Z,46.02
2019-02-17T16:22:43.190Z,46.36
2019-02-17T16:25:11.668Z,45.81
2019-02-17T16:27:39.911Z,46.66
2019-02-17T16:30:13.763Z,46.80
2019-02-17T16:32:41.995Z,46.97
2019-02-17T16:35:10.465Z,46.87
2019-02-17T16:37:38.768Z,47.04
2019-02-17T16:40:09.849Z,47.64
2019-02-17T16:42:38.430Z,47.90
2019-02-17T16:45:09.593Z,48.32
2019-02-17T16:47:38.162Z,48.70
2019-02-17T16:50:15.533Z,49.15
2019-02-17T16:52:44.236Z,49.62
2019-02-17T16:55:12.491Z,49.93
2019-02-17T16:57:40.727Z,50.24
2019-02-17T17:00:16.613Z,50.54
2019-02-17T17:02:45.333Z,51.09
2019-02-17T17:05:13.577Z,51.41
2019-02-17T17:07:42.100Z,51.92
2019-02-17T17:10:10.419Z,52.26
2019-02-17T17:12:38.657Z,52.30
2019-02-17T17:15:08.034Z,52.57
2019-02-17T17:17:36.537Z,52.60
2019-02-17T17:20:10.981Z,52.95
2019-02-17T17:22:39.534Z,53.36
2019-02-17T17:25:09.881Z,53.68
2019-02-17T17:27:38.397Z,54.04
2019-02-17T17:30:15.327Z,54.27
2019-02-17T17:32:43.808Z,54.46
2019-02-17T17:35:12.217Z,54.93
2019-02-17T17:37:40.671Z,55.36
2019-02-17T17:40:18.484Z,55.54
2019-02-17T17:42:46.974Z,55.70
2019-02-17T17:45:20.320Z,56.33
2019-02-17T17:47:48.549Z,56.12
2019-02-17T17:50:17.057Z,56.63
2019-02-17T17:52:45.521Z,57.20
2019-02-17T17:55:14.339Z,57.02
2019-02-17T17:57:42.567Z,58.90
2019-02-17T18:00:19.080Z,58.42
2019-02-17T18:02:47.304Z,58.05
2019-02-17T18:05:15.611Z,58.94
2019-02-17T18:07:43.842Z,59.31
2019-02-17T18:10:15.958Z,58.60
2019-02-17T18:12:44.421Z,58.95
2019-02-17T18:15:14.201Z,59.38
2019-02-17T18:17:42.698Z,59.84
2019-02-17T18:20:12.604Z,60.14
2019-02-17T18:22:40.837Z,60.97
2019-02-17T18:25:11.459Z,59.77
2019-02-17T18:27:39.917Z,60.02
2019-02-17T18:30:11.555Z,59.86
2019-02-17T18:32:40.015Z,60.05
2019-02-17T18:35:18.799Z,60.13
2019-02-17T18:37:38.695Z,61.70
2019-02-17T18:40:10.086Z,60.28
2019-02-17T18:42:38.543Z,60.71
2019-02-17T18:45:09.913Z,60.74
2019-02-17T18:47:38.156Z,61.11
2019-02-17T18:50:09.828Z,62.47
2019-02-17T18:52:38.347Z,62.23
2019-02-17T18:55:08.516Z,61.35
2019-02-17T18:57:36.762Z,61.35
2019-02-17T19:00:22.140Z,62.16
2019-02-17T19:02:50.603Z,61.53
2019-02-17T19:05:21.582Z,61.45
2019-02-17T19:07:49.021Z,61.29
2019-02-17T19:10:17.241Z,61.80
2019-02-17T19:12:45.476Z,61.49
2019-02-17T19:15:15.175Z,61.59
2019-02-17T19:17:43.415Z,62.40
2019-02-17T19:20:14.648Z,62.84
2019-02-17T19:22:42.892Z,61.85
2019-02-17T19:25:11.123Z,62.25
2019-02-17T19:27:39.359Z,62.08
2019-02-17T19:30:10.392Z,62.48
2019-02-17T19:32:38.952Z,61.96
2019-02-17T19:35:09.923Z,62.21
2019-02-17T19:37:38.163Z,62.14
2019-02-17T19:40:09.346Z,62.29
2019-02-17T19:42:37.574Z,62.54
2019-02-17T19:45:11.393Z,62.69
2019-02-17T19:47:39.864Z,62.90
2019-02-17T19:50:10.761Z,63.12
2019-02-17T19:52:39.243Z,63.35
2019-02-17T19:55:09.109Z,63.29
2019-02-17T19:57:37.625Z,63.46
2019-02-17T20:00:10.764Z,63.51
2019-02-17T20:02:57.598Z,63.62
2019-02-17T20:05:27.712Z,64.52
2019-02-17T20:07:55.944Z,64.22
2019-02-17T20:10:24.416Z,64.49
2019-02-17T20:12:52.638Z,64.05
2019-02-17T20:15:22.387Z,64.01
2019-02-17T20:17:50.949Z,64.03
2019-02-17T20:20:19.429Z,64.29
2019-02-17T20:22:48.017Z,64.42
2019-02-17T20:25:16.201Z,64.54
2019-02-17T20:27:44.439Z,64.67
2019-02-17T20:30:14.247Z,64.67
2019-02-17T20:32:42.476Z,64.22
2019-02-17T20:35:10.939Z,64.48
2019-02-17T20:37:39.408Z,64.69
2019-02-17T20:40:12.664Z,64.69
2019-02-17T20:42:41.116Z,64.69
2019-02-17T20:45:10.693Z,65.02
2019-02-17T20:47:39.148Z,65.09
2019-02-17T20:50:09.634Z,65.73
2019-02-17T20:52:37.859Z,65.48
2019-02-17T20:55:09.328Z,65.24
2019-02-17T20:57:37.793Z,65.46
2019-02-17T21:00:15.171Z,66.12
2019-02-17T21:02:43.392Z,66.12
2019-02-17T21:05:11.633Z,65.22
2019-02-17T21:07:39.861Z,65.13
2019-02-17T21:10:11.952Z,65.09
2019-02-17T21:12:40.420Z,65.37
2019-02-17T21:15:14.174Z,65.37
2019-02-17T21:17:42.406Z,65.40
2019-02-17T21:20:11.575Z,65.59
2019-02-17T21:22:39.811Z,65.61
2019-02-17T21:25:10.252Z,65.94
2019-02-17T21:27:38.492Z,66.29
2019-02-17T21:30:10.608Z,66.45
2019-02-17T21:32:39.102Z,67.06
2019-02-17T21:35:10.412Z,66.10
2019-02-17T21:37:38.652Z,66.10
2019-02-17T21:40:09.646Z,66.35
2019-02-17T21:42:38.112Z,66.20
2019-02-17T21:45:14.248Z,66.25
2019-02-17T21:47:42.720Z,66.25
2019-02-17T21:50:12.865Z,66.08
2019-02-17T21:52:42.193Z,66.09
2019-02-17T21:55:12.044Z,66.52
2019-02-17T21:57:40.582Z,66.52
2019-02-17T22:00:19.653Z,66.75
2019-02-17T22:02:47.971Z,66.75
2019-02-17T22:05:16.203Z,66.41
2019-02-17T22:07:45.038Z,66.65
2019-02-17T22:10:16.202Z,67.54
2019-02-17T22:12:44.445Z,67.82
2019-02-17T22:15:17.345Z,67.82
2019-02-17T22:17:45.803Z,67.48
2019-02-17T22:20:14.259Z,68.25
2019-02-17T22:22:42.723Z,68.25
2019-02-17T22:25:11.087Z,68.46
2019-02-17T22:27:39.561Z,68.81
2019-02-17T22:30:12.592Z,67.47
2019-02-17T22:32:40.833Z,67.55
2019-02-17T22:35:09.297Z,67.55
2019-02-17T22:37:37.533Z,67.35
2019-02-17T22:40:10.927Z,67.58
2019-02-17T22:42:39.384Z,67.58
2019-02-17T22:45:11.422Z,67.74
2019-02-17T22:47:39.651Z,68.20
2019-02-17T22:50:10.621Z,68.20
2019-02-17T22:52:39.081Z,68.25
2019-02-17T22:55:10.337Z,68.08
2019-02-17T22:57:38.557Z,69.93
2019-02-17T23:00:12.664Z,69.93
2019-02-17T23:02:40.891Z,68.94
2019-02-17T23:05:09.127Z,69.25
2019-02-17T23:07:37.359Z,69.12
2019-02-17T23:10:08.403Z,70.19
2019-02-17T23:12:36.638Z,70.10
2019-02-17T23:15:06.713Z,70.10
2019-02-17T23:17:35.215Z,70.07
2019-02-17T23:20:04.595Z,69.53
2019-02-17T23:22:33.053Z,69.53
2019-02-17T23:25:01.368Z,69.45
2019-02-17T23:27:29.591Z,69.45
2019-02-17T23:29:58.062Z,69.67
2019-02-17T23:32:26.515Z,69.56
2019-02-17T23:34:54.751Z,69.56
2019-02-17T23:37:22.984Z,70.90
2019-02-17T23:39:51.223Z,70.90
2019-02-17T23:42:19.452Z,70.20
2019-02-17T23:44:47.911Z,70.11
2019-02-17T23:47:16.380Z,70.87
2019-02-17T23:49:44.615Z,72.25
2019-02-17T23:52:12.852Z,72.25
2019-02-17T23:54:41.084Z,71.12
2019-02-17T23:57:09.322Z,71.12
2019-02-17T23:59:37.557Z,71.16
